Time;durP1;ratioP1;P1;durP2;ratioP2;P2;SDS_P1;SDS_P2;PMS_P1;PMS_P2;Temp;Humidity;BMP_temperature;BMP_pressure;BME280_temperature;BME280_humidity;BME280_pressure;Samples;Min_cycle;Max_cycle;Signal;HPM_P1;HPM_P2
2022/10/12 00:01:52;;;;;;;17.85;8.32;;;7.30;99.90;;;;;;5056097;28;20479;-59
2022/10/12 00:04:23;;;;;;;17.80;8.25;;;8.60;99.90;;;;;;5056086;28;20095;-60
2022/10/12 00:06:52;;;;;;;16.55;8.32;;;7.10;99.90;;;;;;5056500;28;20428;-59
2022/10/12 00:09:17;;;;;;;15.18;7.93;;;7.30;99.90;;;;;;5056840;28;20033;-59
2022/10/12 00:11:43;;;;;;;17.25;8.55;;;7.30;99.90;;;;;;5056100;28;20373;-59
2022/10/12 00:14:09;;;;;;;22.67;8.93;;;7.40;99.90;;;;;;5055728;28;20409;-59
2022/10/12 00:16:35;;;;;;;18.80;8.88;;;7.20;99.90;;;;;;5055743;28;20053;-59
2022/10/12 00:19:12;;;;;;;21.90;8.88;;;7.10;99.90;;;;;;5055885;28;20396;-60
2022/10/12 00:21:38;;;;;;;21.88;9.50;;;7.40;99.90;;;;;;5055361;28;20051;-59
2022/10/12 00:24:04;;;;;;;18.92;8.85;;;8.90;99.90;;;;;;5054769;28;20389;-59
2022/10/12 00:26:32;;;;;;;17.95;8.23;;;7.20;99.90;;;;;;5055976;28;20041;-59
2022/10/12 00:29:00;;;;;;;20.10;8.95;;;7.20;99.90;;;;;;5055687;28;20106;-59
2022/10/12 00:31:28;;;;;;;15.73;7.95;;;6.70;99.90;;;;;;5055233;28;20041;-59
2022/10/12 00:34:00;;;;;;;23.80;8.60;;;8.00;99.90;;;;;;5055473;28;20049;-59
2022/10/12 00:36:31;;;;;;;17.60;8.65;;;7.20;99.90;;;;;;5055310;28;20508;-59
2022/10/12 00:38:59;;;;;;;16.27;8.45;;;6.70;99.90;;;;;;5055499;28;20043;-59
2022/10/12 00:41:27;;;;;;;16.85;8.57;;;7.30;99.90;;;;;;5055397;28;20048;-60
2022/10/12 00:43:54;;;;;;;24.90;9.60;;;8.20;99.90;;;;;;5055332;28;20453;-59
2022/10/12 00:46:27;;;;;;;18.63;8.77;;;7.40;99.90;;;;;;5054008;28;20053;-58
2022/10/12 00:49:04;;;;;;;19.75;8.77;;;7.10;99.90;;;;;;5055059;28;20041;-58
2022/10/12 00:51:31;;;;;;;15.68;8.90;;;7.30;99.90;;;;;;5055612;28;20052;-58
2022/10/12 00:54:05;;;;;;;24.90;9.63;;;7.20;99.90;;;;;;5061654;28;20052;-58
2022/10/12 00:56:37;;;;;;;21.85;8.85;;;7.10;99.90;;;;;;5075122;28;20453;-58
2022/10/12 00:59:07;;;;;;;22.05;9.23;;;7.10;99.90;;;;;;5073697;28;20040;-58
2022/10/12 01:01:34;;;;;;;17.80;8.63;;;7.20;99.90;;;;;;5073740;28;20041;-59
2022/10/12 01:04:02;;;;;;;19.23;9.05;;;7.10;99.90;;;;;;5073742;28;20044;-58
2022/10/12 01:06:32;;;;;;;17.73;9.13;;;6.30;99.90;;;;;;5075368;28;20345;-58
2022/10/12 01:09:01;;;;;;;23.98;9.13;;;6.70;99.90;;;;;;5066201;28;20106;-58
2022/10/12 01:11:26;;;;;;;25.17;9.05;;;6.70;99.90;;;;;;5054711;28;20126;-58
2022/10/12 01:13:52;;;;;;;18.30;9.27;;;7.10;99.90;;;;;;5054675;28;20090;-58
2022/10/12 01:16:27;;;;;;;38.90;9.07;;;7.00;99.90;;;;;;5054569;28;20045;-58
2022/10/12 01:19:31;;;;;;;15.27;8.57;;;7.90;99.90;;;;;;5054936;28;20041;-58
2022/10/12 01:22:06;;;;;;;18.88;8.88;;;6.70;99.90;;;;;;5053077;28;20041;-58
2022/10/12 01:24:46;;;;;;;13.10;8.05;;;6.70;99.90;;;;;;5054746;28;20037;-59
2022/10/12 01:27:25;;;;;;;19.65;7.90;;;6.90;99.90;;;;;;5054569;28;20073;-59
2022/10/12 01:29:56;;;;;;;14.63;8.25;;;6.80;99.90;;;;;;5064686;28;20049;-59
2022/10/12 01:32:31;;;;;;;22.42;8.88;;;6.90;99.90;;;;;;5074201;28;20052;-59
2022/10/12 01:35:11;;;;;;;19.95;8.52;;;7.00;99.90;;;;;;5074311;28;20032;-60
2022/10/12 01:37:49;;;;;;;19.10;7.88;;;6.70;99.90;;;;;;5074233;28;20477;-60
2022/10/12 01:40:23;;;;;;;16.20;8.25;;;5.80;99.90;;;;;;5074252;28;20044;-60
2022/10/12 01:42:49;;;;;;;17.38;7.72;;;6.50;99.90;;;;;;5073299;28;20476;-60
2022/10/12 01:45:19;;;;;;;16.98;8.00;;;6.50;99.90;;;;;;5073506;28;20036;-59
2022/10/12 01:47:51;;;;;;;16.02;8.32;;;6.60;99.90;;;;;;5074244;28;20109;-59
2022/10/12 01:50:20;;;;;;;16.42;8.07;;;6.60;99.90;;;;;;5074103;28;20086;-59
2022/10/12 01:52:49;;;;;;;18.92;8.98;;;7.20;99.90;;;;;;5073988;28;20504;-59
2022/10/12 01:55:32;;;;;;;22.30;9.05;;;6.60;99.90;;;;;;5073740;28;20067;-59
2022/10/12 01:58:20;;;;;;;18.90;8.80;;;6.60;99.90;;;;;;5073371;28;20484;-59
2022/10/12 02:01:13;;;;;;;16.73;8.30;;;6.60;99.90;;;;;;5073925;28;20151;-59
2022/10/12 02:04:20;;;;;;;17.48;9.02;;;6.40;99.90;;;;;;5073655;28;20037;-59
2022/10/12 02:06:57;;;;;;;16.85;8.70;;;6.50;99.90;;;;;;5073846;28;20040;-60
2022/10/12 02:09:29;;;;;;;19.02;8.38;;;6.50;99.90;;;;;;5073898;28;20451;-59
2022/10/12 02:11:59;;;;;;;19.83;8.93;;;6.50;99.90;;;;;;5073567;28;20123;-59
2022/10/12 02:14:33;;;;;;;20.55;8.80;;;6.50;99.90;;;;;;5073016;28;20040;-59
2022/10/12 02:17:03;;;;;;;19.02;9.27;;;6.50;99.90;;;;;;5073649;28;20059;-59
2022/10/12 02:19:39;;;;;;;20.35;8.95;;;6.60;99.90;;;;;;5072638;28;20044;-59
2022/10/12 02:22:07;;;;;;;18.40;8.38;;;6.50;99.90;;;;;;5073332;28;20087;-58
2022/10/12 02:24:36;;;;;;;22.52;8.90;;;6.60;99.90;;;;;;5072212;28;20504;-59
2022/10/12 02:27:08;;;;;;;16.42;8.85;;;6.60;99.90;;;;;;5073563;28;20044;-59
2022/10/12 02:29:40;;;;;;;18.02;8.93;;;6.60;99.90;;;;;;5072649;28;20040;-59
2022/10/12 02:32:25;;;;;;;16.30;8.95;;;7.60;99.90;;;;;;5073205;28;20048;-58
2022/10/12 02:35:22;;;;;;;15.40;8.18;;;6.50;99.90;;;;;;5073114;28;20036;-58
2022/10/12 02:37:55;;;;;;;17.63;8.48;;;6.60;99.90;;;;;;5071912;28;20124;-58
2022/10/12 02:40:26;;;;;;;20.65;8.30;;;6.60;99.90;;;;;;5073306;28;20102;-58
2022/10/12 02:43:01;;;;;;;20.05;8.80;;;6.40;99.90;;;;;;5066373;28;20037;-58
2022/10/12 02:45:33;;;;;;;19.85;8.50;;;6.70;99.90;;;;;;5053097;28;20044;-59
2022/10/12 02:48:02;;;;;;;15.43;7.57;;;5.60;99.90;;;;;;5053141;28;20041;-58
2022/10/12 02:50:28;;;;;;;18.70;7.75;;;6.60;99.90;;;;;;5053225;28;20068;-58
2022/10/12 02:52:55;;;;;;;23.88;8.02;;;6.50;99.90;;;;;;5053202;28;20044;-58
2022/10/12 02:55:21;;;;;;;19.85;7.63;;;;;;;;;;5052929;28;20063;-58
2022/10/12 02:57:47;;;;;;;36.35;18.60;;;6.70;99.90;;;;;;5059747;28;20463;-58
2022/10/12 03:00:13;;;;;;;37.67;16.27;;;6.50;99.90;;;;;;5073212;28;20064;-58
2022/10/12 03:02:39;;;;;;;18.73;10.63;;;6.50;99.90;;;;;;5073177;28;20069;-58
2022/10/12 03:05:06;;;;;;;17.25;8.27;;;;;;;;;;5073118;28;20044;-59
2022/10/12 03:07:31;;;;;;;18.60;7.97;;;6.10;99.90;;;;;;5072113;28;20048;-59
2022/10/12 03:09:59;;;;;;;14.98;7.55;;;7.00;99.90;;;;;;5072955;28;20120;-58
2022/10/12 03:12:26;;;;;;;15.43;6.90;;;7.10;99.90;;;;;;5066924;28;20074;-58
2022/10/12 03:14:53;;;;;;;15.13;7.00;;;6.40;99.90;;;;;;5052103;28;20053;-58
2022/10/12 03:17:20;;;;;;;16.67;7.57;;;;;;;;;;5053077;28;20040;-59
2022/10/12 03:19:46;;;;;;;18.58;8.02;;;6.40;99.90;;;;;;5053105;28;20052;-59
2022/10/12 03:22:11;;;;;;;17.45;7.70;;;5.80;99.90;;;;;;5052652;28;20056;-58
2022/10/12 03:24:37;;;;;;;16.15;7.60;;;;;;;;;;5052803;28;20036;-58
2022/10/12 03:27:03;;;;;;;15.82;7.40;;;;;;;;;;5057993;28;20045;-58
2022/10/12 03:29:31;;;;;;;16.65;7.72;;;;;;;;;;5072781;28;20637;-58
2022/10/12 03:31:57;;;;;;;15.02;7.43;;;6.20;99.90;;;;;;5072968;28;20036;-58
2022/10/12 03:34:23;;;;;;;17.50;7.28;;;6.30;99.90;;;;;;5073147;28;20380;-59
2022/10/12 03:36:48;;;;;;;19.77;8.35;;;6.00;99.90;;;;;;5071577;28;20041;-58
2022/10/12 03:39:14;;;;;;;19.23;7.82;;;6.30;99.90;;;;;;5072746;28;20044;-58
2022/10/12 03:41:39;;;;;;;15.70;7.45;;;6.20;99.90;;;;;;5070699;28;20045;-58
2022/10/12 03:44:05;;;;;;;15.18;7.43;;;;;;;;;;5072579;28;20037;-58
2022/10/12 03:46:31;;;;;;;18.80;7.72;;;5.60;99.90;;;;;;5072647;28;20502;-58
2022/10/12 03:48:57;;;;;;;21.55;7.25;;;6.10;99.90;;;;;;5073064;28;20037;-58
2022/10/12 03:51:23;;;;;;;14.45;7.50;;;;;;;;;;5072679;28;20041;-58
2022/10/12 03:53:51;;;;;;;16.25;7.80;;;5.90;99.90;;;;;;5071258;28;20476;-58
2022/10/12 03:56:17;;;;;;;14.38;7.22;;;;;;;;;;5071460;28;20506;-58
2022/10/12 03:58:42;;;;;;;14.48;7.70;;;6.80;99.90;;;;;;5072607;28;20461;-58
2022/10/12 04:01:08;;;;;;;19.70;7.88;;;6.00;99.90;;;;;;5072655;28;20048;-59
2022/10/12 04:03:35;;;;;;;15.95;7.63;;;;;;;;;;5072637;28;20045;-58
2022/10/12 04:06:01;;;;;;;19.35;8.35;;;6.70;99.90;;;;;;5073924;28;20072;-58
2022/10/12 04:08:27;;;;;;;14.75;8.68;;;5.80;99.90;;;;;;5075981;28;20113;-57
2022/10/12 04:10:53;;;;;;;18.23;7.80;;;6.00;99.90;;;;;;5073854;28;20083;-57
2022/10/12 04:13:19;;;;;;;17.38;8.18;;;5.70;99.90;;;;;;5056186;28;20075;-57
2022/10/12 04:15:45;;;;;;;17.23;8.35;;;5.70;99.90;;;;;;5055719;28;20076;-57
2022/10/12 04:18:11;;;;;;;17.15;8.60;;;5.80;99.90;;;;;;5055935;28;20033;-57
2022/10/12 04:20:37;;;;;;;18.17;9.25;;;5.80;99.90;;;;;;5053955;28;20047;-57
2022/10/12 04:23:03;;;;;;;18.00;8.25;;;5.20;99.90;;;;;;5054452;28;20080;-57
2022/10/12 04:25:28;;;;;;;18.88;8.93;;;5.60;99.90;;;;;;5054642;28;20048;-58
2022/10/12 04:27:54;;;;;;;17.20;8.35;;;5.80;99.90;;;;;;5055811;28;20074;-57
2022/10/12 04:30:20;;;;;;;17.38;8.60;;;5.60;99.90;;;;;;5055481;28;20354;-57
2022/10/12 04:32:45;;;;;;;18.05;8.75;;;5.40;99.90;;;;;;5073890;28;20036;-58
2022/10/12 04:35:14;;;;;;;21.83;9.43;;;5.60;99.90;;;;;;5075893;28;20052;-57
2022/10/12 04:37:40;;;;;;;23.83;9.50;;;5.80;99.90;;;;;;5068225;28;20055;-57
2022/10/12 04:40:06;;;;;;;23.90;9.00;;;4.50;99.90;;;;;;5055171;28;20037;-57
2022/10/12 04:42:32;;;;;;;24.25;9.38;;;5.40;99.90;;;;;;5053917;28;20490;-57
2022/10/12 04:44:58;;;;;;;28.48;9.30;;;;;;;;;;5054811;28;20060;-57
2022/10/12 04:47:25;;;;;;;21.13;9.40;;;5.40;99.90;;;;;;5055445;28;20040;-57
2022/10/12 04:49:51;;;;;;;21.48;9.25;;;;;;;;;;5054915;28;20489;-57
2022/10/12 04:52:17;;;;;;;20.42;8.73;;;5.40;99.90;;;;;;5055175;28;20041;-57
2022/10/12 04:54:43;;;;;;;22.83;9.75;;;;;;;;;;5053655;28;20052;-57
2022/10/12 04:57:13;;;;;;;23.40;9.23;;;5.70;99.90;;;;;;5054959;28;20052;-57
2022/10/12 04:59:45;;;;;;;27.38;9.38;;;5.60;99.90;;;;;;5064852;28;20377;-57
2022/10/12 05:02:14;;;;;;;23.40;9.30;;;5.50;99.90;;;;;;5067399;28;20098;-57
2022/10/12 05:04:42;;;;;;;17.60;9.45;;;;;;;;;;5054761;28;20073;-57
2022/10/12 05:07:11;;;;;;;22.27;9.98;;;;;;;;;;5046888;28;20131;-57
2022/10/12 05:09:40;;;;;;;20.48;9.30;;;5.60;99.90;;;;;;5048338;28;20112;-57
2022/10/12 05:12:08;;;;;;;28.77;9.95;;;6.00;99.90;;;;;;5052531;28;20052;-58
2022/10/12 05:14:34;;;;;;;19.30;9.45;;;5.70;99.90;;;;;;5051481;28;20056;-57
2022/10/12 05:17:04;;;;;;;20.00;9.02;;;5.60;99.90;;;;;;5050475;28;20492;-57
2022/10/12 05:19:30;;;;;;;18.83;8.90;;;5.70;99.90;;;;;;5050924;28;20210;-57
2022/10/12 05:21:57;;;;;;;21.65;9.73;;;5.40;99.90;;;;;;5051375;28;20574;-58
2022/10/12 05:24:23;;;;;;;18.52;8.75;;;;;;;;;;5053228;28;20045;-58
2022/10/12 05:26:49;;;;;;;22.40;8.57;;;5.10;99.90;;;;;;5051934;28;20045;-58
2022/10/12 05:29:15;;;;;;;20.95;9.27;;;;;;;;;;5053267;28;20403;-58
2022/10/12 05:31:41;;;;;;;21.35;9.57;;;;;;;;;;5052290;28;20079;-58
2022/10/12 05:34:09;;;;;;;18.08;9.00;;;5.40;99.90;;;;;;5052251;28;20470;-58
2022/10/12 05:36:35;;;;;;;17.40;9.02;;;;;;;;;;5053433;28;20033;-58
2022/10/12 05:39:01;;;;;;;22.00;9.10;;;5.30;99.90;;;;;;5053430;28;20044;-58
2022/10/12 05:41:28;;;;;;;18.90;8.98;;;5.30;99.90;;;;;;5053787;28;20067;-58
2022/10/12 05:43:54;;;;;;;20.35;9.18;;;;;;;;;;5053751;28;20037;-58
2022/10/12 05:46:23;;;;;;;27.38;9.75;;;;;;;;;;5053753;28;20045;-58
2022/10/12 05:48:49;;;;;;;16.00;8.45;;;5.20;99.90;;;;;;5051687;28;20056;-58
2022/10/12 05:51:15;;;;;;;19.27;9.18;;;4.60;99.90;;;;;;5054052;28;20040;-58
2022/10/12 05:53:40;;;;;;;24.05;9.43;;;5.30;99.90;;;;;;5053902;28;20044;-58
2022/10/12 05:56:06;;;;;;;22.05;9.10;;;4.80;99.90;;;;;;5045911;28;20057;-58
2022/10/12 05:58:34;;;;;;;19.33;8.73;;;5.10;99.90;;;;;;5050791;28;20040;-57
2022/10/12 06:01:09;;;;;;;20.92;9.50;;;5.20;99.90;;;;;;5048956;28;20041;-58
2022/10/12 06:03:34;;;;;;;16.95;8.88;;;5.10;99.90;;;;;;5050552;28;20053;-58
2022/10/12 06:06:02;;;;;;;20.88;9.55;;;5.20;99.90;;;;;;5051591;28;20045;-58
2022/10/12 06:08:30;;;;;;;21.27;9.25;;;5.30;99.90;;;;;;5053274;28;20056;-59
2022/10/12 06:11:01;;;;;;;22.88;9.57;;;4.60;99.90;;;;;;5052246;28;20048;-59
2022/10/12 06:13:28;;;;;;;18.98;9.82;;;5.20;99.90;;;;;;5048814;28;20422;-59
2022/10/12 06:15:56;;;;;;;28.65;9.90;;;5.30;99.90;;;;;;5051889;28;20041;-59
2022/10/12 06:18:22;;;;;;;44.20;11.02;;;4.60;99.90;;;;;;5050932;28;20036;-60
2022/10/12 06:20:53;;;;;;;33.17;11.02;;;5.80;99.90;;;;;;5052133;28;20132;-59
2022/10/12 06:23:20;;;;;;;25.80;10.75;;;5.30;99.90;;;;;;5032584;28;20037;-59
2022/10/12 06:25:49;;;;;;;29.33;10.32;;;5.40;99.90;;;;;;5047796;28;20040;-59
2022/10/12 06:28:19;;;;;;;26.48;10.50;;;5.20;99.90;;;;;;5051191;28;20507;-59
2022/10/12 06:30:58;;;;;;;26.50;10.90;;;5.30;99.90;;;;;;5052321;28;20040;-59
2022/10/12 06:33:26;;;;;;;22.15;10.88;;;5.30;99.90;;;;;;5050991;28;20052;-59
2022/10/12 06:35:54;;;;;;;22.67;10.80;;;6.20;99.90;;;;;;5050635;28;20370;-59
2022/10/12 06:38:21;;;;;;;31.00;11.35;;;5.60;99.90;;;;;;5051566;28;20191;-58
2022/10/12 06:40:46;;;;;;;22.10;10.60;;;4.80;99.90;;;;;;5049842;28;20104;-59
2022/10/12 06:43:13;;;;;;;24.95;10.43;;;;;;;;;;5050657;28;20529;-58
2022/10/12 06:45:39;;;;;;;24.02;11.18;;;;;;;;;;5051824;28;20065;-59
2022/10/12 06:48:08;;;;;;;23.77;11.38;;;5.60;99.90;;;;;;5050429;28;20044;-59
2022/10/12 06:50:34;;;;;;;30.05;12.52;;;6.00;99.90;;;;;;5063251;28;20053;-59
2022/10/12 06:53:00;;;;;;;29.85;12.05;;;;;;;;;;5045463;28;20041;-59
2022/10/12 06:55:34;;;;;;;41.95;13.57;;;;;;;;;;5048707;28;20041;-59
2022/10/12 06:58:00;;;;;;;32.75;12.63;;;5.70;99.90;;;;;;5050473;28;20033;-59
2022/10/12 07:00:27;;;;;;;28.27;12.68;;;6.00;99.90;;;;;;5051004;28;20040;-59
2022/10/12 07:02:53;;;;;;;36.40;12.32;;;6.20;99.90;;;;;;5033576;28;20067;-59
2022/10/12 07:05:20;;;;;;;30.85;12.57;;;6.60;99.90;;;;;;5047771;28;20037;-59
2022/10/12 07:07:46;;;;;;;24.95;12.55;;;6.30;99.90;;;;;;5051445;28;20068;-60
2022/10/12 07:10:13;;;;;;;25.92;11.77;;;6.20;99.90;;;;;;5051706;28;20032;-59
2022/10/12 07:12:39;;;;;;;36.55;12.02;;;6.50;99.90;;;;;;5051748;28;20072;-59
2022/10/12 07:15:08;;;;;;;33.83;12.73;;;7.40;99.90;;;;;;5051131;28;20095;-59
2022/10/12 07:17:35;;;;;;;219.95;18.85;;;6.90;99.90;;;;;;5050528;28;20029;-59
2022/10/12 07:20:01;;;;;;;53.55;13.38;;;6.60;99.90;;;;;;5051510;28;20033;-59
2022/10/12 07:22:31;;;;;;;47.00;12.63;;;7.00;99.90;;;;;;5048916;28;20051;-59
2022/10/12 07:25:00;;;;;;;25.25;11.68;;;7.70;99.90;;;;;;5051607;28;20052;-59
2022/10/12 07:27:26;;;;;;;26.48;11.85;;;6.90;99.90;;;;;;5050447;28;20037;-59
2022/10/12 07:29:53;;;;;;;29.27;11.95;;;7.40;99.90;;;;;;5051928;28;20049;-59
2022/10/12 07:32:19;;;;;;;22.63;11.93;;;7.40;99.90;;;;;;5051228;28;20443;-60
2022/10/12 07:34:45;;;;;;;26.17;10.55;;;7.40;99.90;;;;;;5049134;28;20044;-59
2022/10/12 07:37:12;;;;;;;30.58;11.10;;;;;;;;;;5046457;28;20390;-59
2022/10/12 07:39:40;;;;;;;21.60;10.18;;;7.70;99.90;;;;;;5047683;28;20133;-60
2022/10/12 07:42:06;;;;;;;23.13;9.70;;;8.20;99.90;;;;;;5049314;28;20398;-60
2022/10/12 07:44:33;;;;;;;22.23;9.02;;;;;;;;;;5049957;28;20033;-59
2022/10/12 07:46:59;;;;;;;26.65;9.60;;;;;;;;;;5052176;28;20546;-59
2022/10/12 07:49:25;;;;;;;23.77;9.88;;;;;;;;;;5052734;28;20385;-60
2022/10/12 07:51:51;;;;;;;21.48;8.98;;;;;;;;;;5054521;28;20489;-60
2022/10/12 07:54:17;;;;;;;23.08;9.20;;;8.70;99.90;;;;;;5055186;28;20041;-59
2022/10/12 07:56:45;;;;;;;19.70;9.45;;;8.70;99.90;;;;;;5055208;28;20095;-60
2022/10/12 07:59:15;;;;;;;21.05;9.23;;;8.80;99.90;;;;;;5055027;28;20524;-60
2022/10/12 08:01:40;;;;;;;22.38;8.85;;;8.80;99.90;;;;;;5052984;28;20033;-59
2022/10/12 08:04:07;;;;;;;25.63;8.70;;;;;;;;;;5054574;28;20033;-59
2022/10/12 08:06:35;;;;;;;25.23;8.88;;;8.60;99.90;;;;;;5053615;28;20037;-59
2022/10/12 08:09:02;;;;;;;18.48;9.00;;;8.70;99.90;;;;;;5055075;28;20048;-59
2022/10/12 08:11:28;;;;;;;27.13;8.70;;;;;;;;;;5054290;28;20041;-59
2022/10/12 08:13:55;;;;;;;20.77;8.90;;;9.10;99.90;;;;;;5054174;28;20037;-59
2022/10/12 08:16:21;;;;;;;28.63;8.50;;;9.70;99.90;;;;;;5054400;28;20122;-59
2022/10/12 08:18:47;;;;;;;16.85;7.30;;;;;;;;;;5051568;28;20421;-59
2022/10/12 08:21:14;;;;;;;22.40;7.80;;;9.70;99.90;;;;;;5052669;28;20060;-60
2022/10/12 08:23:43;;;;;;;19.58;7.55;;;9.70;99.90;;;;;;5054290;28;20084;-59
2022/10/12 08:26:10;;;;;;;23.60;8.20;;;9.60;99.90;;;;;;5052239;28;20040;-60
2022/10/12 08:28:44;;;;;;;19.35;7.40;;;;;;;;;;5054360;28;20052;-60
2022/10/12 08:31:15;;;;;;;24.15;7.60;;;10.10;99.90;;;;;;5050154;28;20045;-60
2022/10/12 08:33:41;;;;;;;24.05;7.35;;;9.70;99.90;;;;;;5054214;28;20037;-60
2022/10/12 08:36:12;;;;;;;21.65;8.07;;;8.90;99.90;;;;;;5054253;28;20043;-59
2022/10/12 08:38:42;;;;;;;20.13;7.28;;;10.10;99.90;;;;;;5054305;28;20112;-59
2022/10/12 08:41:40;;;;;;;19.35;7.10;;;9.70;99.90;;;;;;5053906;28;20037;-59
2022/10/12 08:44:29;;;;;;;18.70;7.55;;;10.70;99.90;;;;;;5048288;28;20477;-59
2022/10/12 08:47:02;;;;;;;20.40;7.88;;;10.40;99.90;;;;;;5054118;28;20040;-59
2022/10/12 08:49:29;;;;;;;25.35;7.95;;;10.40;99.90;;;;;;5048085;28;20040;-59
2022/10/12 08:52:02;;;;;;;19.10;7.15;;;9.90;99.90;;;;;;5049997;28;20060;-60
2022/10/12 08:54:42;;;;;;;23.88;7.65;;;10.60;99.90;;;;;;5050375;28;20051;-61
2022/10/12 08:57:18;;;;;;;21.92;7.38;;;10.40;99.90;;;;;;5053480;28;20032;-61
2022/10/12 08:59:45;;;;;;;19.88;7.60;;;10.70;99.90;;;;;;5053687;28;20044;-61
2022/10/12 09:02:48;;;;;;;23.17;7.72;;;11.00;99.90;;;;;;5051780;28;20114;-61
2022/10/12 09:05:27;;;;;;;17.98;7.70;;;10.70;99.90;;;;;;5051677;28;20488;-61
2022/10/12 09:08:00;;;;;;;19.52;7.57;;;10.70;99.90;;;;;;5049913;28;20033;-61
2022/10/12 09:10:26;;;;;;;22.98;7.75;;;;;;;;;;5053679;28;20048;-61
2022/10/12 09:13:08;;;;;;;18.38;7.05;;;10.80;99.90;;;;;;5052176;28;20037;-61
2022/10/12 09:15:40;;;;;;;20.15;8.00;;;11.00;99.90;;;;;;5053266;28;20052;-61
2022/10/12 09:18:17;;;;;;;19.02;7.40;;;10.90;99.90;;;;;;5053399;28;20521;-61
2022/10/12 09:20:50;;;;;;;18.58;7.90;;;11.00;99.90;;;;;;5051418;28;20056;-61
2022/10/12 09:23:23;;;;;;;18.20;7.20;;;11.40;99.90;;;;;;5053052;28;20044;-60
2022/10/12 09:25:49;;;;;;;21.77;7.80;;;11.70;99.90;;;;;;5051688;28;20485;-60
2022/10/12 09:28:26;;;;;;;20.20;7.60;;;11.20;99.90;;;;;;5053188;28;20045;-60
2022/10/12 09:31:04;;;;;;;19.23;7.50;;;11.50;99.90;;;;;;5052057;28;20116;-61
2022/10/12 09:33:47;;;;;;;24.45;7.68;;;11.70;99.90;;;;;;5051159;28;20037;-61
2022/10/12 09:36:21;;;;;;;29.52;8.10;;;11.70;99.90;;;;;;5053277;28;20045;-61
2022/10/12 09:38:50;;;;;;;20.65;7.88;;;11.70;99.90;;;;;;5053025;28;20029;-61
2022/10/12 09:41:20;;;;;;;20.05;7.80;;;11.80;99.90;;;;;;5051720;28;20037;-61
2022/10/12 09:43:56;;;;;;;25.10;7.45;;;11.80;99.90;;;;;;5051910;28;20428;-60
2022/10/12 09:46:41;;;;;;;21.55;7.55;;;11.50;99.90;;;;;;5052869;28;20040;-60
2022/10/12 09:49:07;;;;;;;21.83;7.10;;;;;;;;;;5053415;28;20170;-61
2022/10/12 09:51:34;;;;;;;21.52;7.13;;;11.80;99.90;;;;;;5052734;28;20289;-61
2022/10/12 09:54:02;;;;;;;17.88;6.30;;;11.90;99.90;;;;;;5052732;28;20051;-61
2022/10/12 09:56:33;;;;;;;20.02;6.85;;;12.30;99.90;;;;;;5052468;28;20427;-60
2022/10/12 09:59:02;;;;;;;17.55;7.30;;;12.10;99.90;;;;;;5052437;28;20033;-60
2022/10/12 10:01:31;;;;;;;21.27;7.30;;;12.50;99.90;;;;;;5052602;28;20116;-61
2022/10/12 10:04:11;;;;;;;19.70;7.82;;;12.30;99.90;;;;;;5051615;28;20037;-60
2022/10/12 10:06:40;;;;;;;15.80;6.75;;;12.90;99.90;;;;;;5052699;28;20041;-61
2022/10/12 10:09:25;;;;;;;17.90;6.40;;;12.90;99.90;;;;;;5049938;28;20045;-61
2022/10/12 10:11:51;;;;;;;18.55;6.13;;;12.60;99.90;;;;;;5048810;28;20041;-61
2022/10/12 10:14:16;;;;;;;16.83;6.40;;;12.90;99.90;;;;;;5047413;28;20132;-61
2022/10/12 10:16:53;;;;;;;20.13;6.32;;;13.10;99.90;;;;;;5046770;28;20029;-61
2022/10/12 10:19:23;;;;;;;24.15;6.60;;;13.10;99.90;;;;;;5047954;28;20516;-61
2022/10/12 10:21:50;;;;;;;22.23;6.57;;;13.30;99.90;;;;;;5046807;28;20056;-61
2022/10/12 10:24:26;;;;;;;19.23;6.47;;;13.40;99.90;;;;;;5047488;28;20128;-61
2022/10/12 10:27:03;;;;;;;22.30;6.07;;;13.40;99.90;;;;;;5047538;28;20033;-60
2022/10/12 10:29:40;;;;;;;15.30;5.78;;;13.60;99.90;;;;;;5047592;28;20080;-61
2022/10/12 10:32:25;;;;;;;20.52;5.53;;;13.60;99.90;;;;;;5047534;28;20115;-61
2022/10/12 10:35:12;;;;;;;17.48;5.57;;;13.70;99.90;;;;;;5046642;28;20044;-61
2022/10/12 10:37:57;;;;;;;17.10;5.38;;;13.60;99.90;;;;;;5046767;28;20094;-61
2022/10/12 10:40:51;;;;;;;13.00;5.18;;;13.70;99.90;;;;;;5046251;28;20504;-61
2022/10/12 10:43:36;;;;;;;16.63;5.57;;;13.80;99.90;;;;;;5045957;28;20044;-61
2022/10/12 10:46:28;;;;;;;16.92;5.22;;;13.80;99.90;;;;;;5046599;28;20103;-61
2022/10/12 10:49:07;;;;;;;14.55;4.50;;;13.90;99.90;;;;;;5050847;28;20055;-61
2022/10/12 10:51:41;;;;;;;13.73;3.80;;;14.10;99.90;;;;;;5081183;28;20044;-62
2022/10/12 10:54:27;;;;;;;12.85;4.10;;;14.20;99.90;;;;;;5052171;28;20036;-61
2022/10/12 10:57:15;;;;;;;14.57;3.72;;;14.20;99.90;;;;;;5048051;28;20048;-62
2022/10/12 10:59:50;;;;;;;14.52;4.15;;;14.10;99.90;;;;;;5051552;28;20033;-62
2022/10/12 11:02:48;;;;;;;13.68;4.88;;;14.30;99.90;;;;;;5052650;28;20033;-63
2022/10/12 11:05:34;;;;;;;14.75;4.28;;;14.30;99.90;;;;;;5021445;28;20457;-63
2022/10/12 11:08:04;;;;;;;17.52;4.60;;;14.30;99.90;;;;;;5046527;28;20184;-62
2022/10/12 11:10:36;;;;;;;14.48;4.53;;;14.60;99.90;;;;;;5053218;28;20049;-61
2022/10/12 11:13:02;;;;;;;14.73;4.95;;;;;;;;;;5052811;28;20397;-61
2022/10/12 11:15:35;;;;;;;16.80;4.50;;;14.80;99.90;;;;;;5054314;28;20049;-62
2022/10/12 11:18:13;;;;;;;18.17;4.30;;;14.70;99.90;;;;;;5055555;28;20090;-65
2022/10/12 11:20:51;;;;;;;14.23;4.18;;;14.70;99.90;;;;;;5054881;28;20098;-61
2022/10/12 11:23:26;;;;;;;14.77;4.60;;;;;;;;;;5055843;28;20083;-61
2022/10/12 11:26:15;;;;;;;12.90;4.72;;;14.50;99.90;;;;;;5055479;28;20064;-61
2022/10/12 11:28:42;;;;;;;13.23;4.30;;;14.70;99.90;;;;;;5055080;28;20392;-61
2022/10/12 11:31:21;;;;;;;14.20;4.25;;;15.00;99.90;;;;;;5054508;28;20077;-61
2022/10/12 11:33:47;;;;;;;17.77;4.68;;;15.00;99.90;;;;;;5055584;28;20040;-61
2022/10/12 11:36:20;;;;;;;15.30;4.40;;;15.00;99.90;;;;;;5053322;28;20449;-62
2022/10/12 11:38:57;;;;;;;14.55;4.15;;;15.60;99.90;;;;;;5052873;28;20058;-62
2022/10/12 11:41:47;;;;;;;15.63;4.35;;;15.30;99.90;;;;;;5056306;28;20099;-62
2022/10/12 11:44:13;;;;;;;13.60;4.40;;;;;;;;;;5056095;28;20488;-61
2022/10/12 11:46:52;;;;;;;14.70;4.20;;;15.30;99.90;;;;;;5054596;28;20036;-62
2022/10/12 11:49:26;;;;;;;10.23;4.03;;;15.50;99.90;;;;;;5050040;28;21201;-62
2022/10/12 11:51:55;;;;;;;12.40;3.70;;;15.30;99.90;;;;;;5050839;28;20044;-62
2022/10/12 11:54:31;;;;;;;10.63;3.70;;;15.60;99.90;;;;;;5049772;28;20524;-62
2022/10/12 11:57:03;;;;;;;15.20;4.25;;;15.50;99.90;;;;;;5066670;28;20045;-62
2022/10/12 11:59:47;;;;;;;9.38;3.92;;;15.70;99.90;;;;;;5050066;28;20033;-61
2022/10/12 12:02:18;;;;;;;12.73;3.75;;;15.90;99.90;;;;;;5049663;28;20045;-62
2022/10/12 12:04:51;;;;;;;19.17;3.70;;;15.80;99.90;;;;;;5048737;28;20041;-61
2022/10/12 12:07:36;;;;;;;9.55;3.67;;;16.00;99.90;;;;;;5050258;28;20451;-62
2022/10/12 12:10:27;;;;;;;16.73;4.30;;;15.80;99.90;;;;;;5050081;28;20040;-62
2022/10/12 12:13:13;;;;;;;11.23;3.78;;;15.80;99.90;;;;;;5051618;28;20036;-62
2022/10/12 12:15:48;;;;;;;12.85;4.13;;;16.50;99.90;;;;;;5050253;28;20492;-62
2022/10/12 12:18:19;;;;;;;15.38;3.58;;;16.10;99.90;;;;;;5055549;28;20055;-62
2022/10/12 12:20:52;;;;;;;13.25;4.00;;;15.70;99.90;;;;;;5051064;28;20045;-62
2022/10/12 12:23:25;;;;;;;10.52;3.80;;;16.20;99.90;;;;;;5054651;28;20041;-62
2022/10/12 12:26:09;;;;;;;9.18;3.58;;;16.60;99.90;;;;;;5054388;28;20044;-62
2022/10/12 12:28:41;;;;;;;13.27;4.05;;;16.30;99.90;;;;;;5054082;28;20127;-62
2022/10/12 12:31:22;;;;;;;9.00;3.55;;;16.10;99.90;;;;;;5051095;28;20461;-62
2022/10/12 12:34:09;;;;;;;10.13;3.65;;;16.20;99.90;;;;;;5050865;28;20041;-62
2022/10/12 12:36:37;;;;;;;14.52;3.63;;;15.70;99.90;;;;;;5053752;28;20235;-61
2022/10/12 12:39:05;;;;;;;12.73;3.70;;;16.70;99.90;;;;;;5053337;28;20033;-61
2022/10/12 12:41:52;;;;;;;8.60;3.38;;;17.10;99.90;;;;;;5052644;28;20516;-61
2022/10/12 12:44:32;;;;;;;39.58;6.22;;;16.70;99.90;;;;;;5047841;28;20037;-61
2022/10/12 12:47:08;;;;;;;141.75;13.52;;;16.40;99.90;;;;;;5047381;28;20459;-61
2022/10/12 12:49:49;;;;;;;54.90;7.10;;;17.10;99.90;;;;;;5052659;28;20072;-60
2022/10/12 12:52:28;;;;;;;20.48;4.45;;;16.70;99.90;;;;;;5053825;28;20397;-61
2022/10/12 12:55:12;;;;;;;11.40;3.90;;;16.90;99.90;;;;;;5054435;28;21319;-60
2022/10/12 12:58:02;;;;;;;14.73;4.00;;;16.90;99.90;;;;;;5053266;28;20044;-61
2022/10/12 13:00:45;;;;;;;13.25;3.65;;;17.10;99.90;;;;;;5054255;28;20044;-61
2022/10/12 13:03:32;;;;;;;19.38;3.90;;;17.10;99.90;;;;;;5052510;28;20052;-61
2022/10/12 13:06:28;;;;;;;17.23;4.07;;;17.30;99.90;;;;;;5053835;28;20033;-61
2022/10/12 13:09:31;;;;;;;14.73;4.13;;;17.20;99.90;;;;;;5053655;28;20029;-61
2022/10/12 13:12:22;;;;;;;19.15;4.40;;;17.80;99.90;;;;;;5053319;28;20129;-61
2022/10/12 13:14:58;;;;;;;24.27;4.70;;;17.00;99.90;;;;;;5053192;28;20051;-61
2022/10/12 13:18:05;;;;;;;22.15;4.40;;;17.10;99.90;;;;;;5053463;28;20072;-61